Time;durP1;ratioP1;P1;durP2;ratioP2;P2;SDS_P1;SDS_P2;PMS_P1;PMS_P2;Temp;Humidity;BMP_temperature;BMP_pressure;BME280_temperature;BME280_humidity;BME280_pressure;Samples;Min_cycle;Max_cycle;Signal;HPM_P1;HPM_P2
2022/09/12 00:01:06;;;;;;;6.33;5.67;;;;;;;;;;5137866;27;20271;-65
2022/09/12 00:03:33;;;;;;;8.03;6.80;;;;;;;;;;5121862;27;20292;-66
2022/09/12 00:06:01;;;;;;;8.13;6.70;;;;;;;;;;5114184;27;20199;-65
2022/09/12 00:08:28;;;;;;;8.10;7.30;;;;;;;;;;5135059;27;20298;-65
2022/09/12 00:10:55;;;;;;;9.67;8.67;;;;;;;;;;5111041;28;20299;-66
2022/09/12 00:13:23;;;;;;;10.07;8.57;;;;;;;;;;5094024;28;20658;-66
2022/09/12 00:15:50;;;;;;;8.97;8.17;;;;;;;;;;5093431;28;20288;-66
2022/09/12 00:18:17;;;;;;;8.27;7.07;;;;;;;;;;5094012;28;20201;-66
2022/09/12 00:20:45;;;;;;;8.37;7.50;;;;;;;;;;5093100;28;20204;-66
2022/09/12 00:23:13;;;;;;;8.17;7.37;;;;;;;;;;5096393;27;20310;-66
2022/09/12 00:25:44;;;;;;;10.00;7.60;;;;;;;;;;5131623;27;20283;-66
2022/09/12 00:28:13;;;;;;;8.33;7.53;;;;;;;;;;5113170;27;20256;-66
2022/09/12 00:30:43;;;;;;;8.70;7.77;;;;;;;;;;5113064;27;20274;-64
2022/09/12 00:33:11;;;;;;;8.97;7.43;;;;;;;;;;5113376;27;20223;-66
2022/09/12 00:35:45;;;;;;;8.07;6.97;;;;;;;;;;5113204;27;20578;-65
2022/09/12 00:38:13;;;;;;;7.43;6.73;;;;;;;;;;5113585;27;20182;-65
2022/09/12 00:40:41;;;;;;;7.20;6.50;;;;;;;;;;5137363;27;20297;-65
2022/09/12 00:43:32;;;;;;;7.27;6.60;;;;;;;;;;5134054;27;20306;-66
2022/09/12 00:46:02;;;;;;;6.33;5.73;;;;;;;;;;5133716;27;20658;-66
2022/09/12 00:48:41;;;;;;;6.30;5.70;;;;;;;;;;5133756;27;20282;-66
2022/09/12 00:51:09;;;;;;;6.17;5.57;;;;;;;;;;5133883;27;20282;-66
2022/09/12 00:53:37;;;;;;;6.00;5.50;;;;;;;;;;5134001;27;20333;-65
2022/09/12 00:56:05;;;;;;;6.77;6.10;;;;;;;;;;5133603;27;20286;-65
2022/09/12 00:58:38;;;;;;;6.47;5.93;;;;;;;;;;5138513;27;20278;-66
2022/09/12 01:01:05;;;;;;;7.50;6.80;;;;;;;;;;5112941;27;20192;-65
2022/09/12 01:03:33;;;;;;;7.23;6.63;;;;;;;;;;5113328;27;20274;-65
2022/09/12 01:06:18;;;;;;;9.23;8.33;;;;;;;;;;5113127;27;20594;-65
2022/09/12 01:08:46;;;;;;;10.70;9.40;;;;;;;;;;5113038;27;20573;-65
2022/09/12 01:11:15;;;;;;;11.07;9.93;;;;;;;;;;5131178;27;20294;-65
2022/09/12 01:13:46;;;;;;;11.77;10.03;;;;;;;;;;5112775;27;20645;-64
2022/09/12 01:16:13;;;;;;;12.13;9.10;;;;;;;;;;5112153;27;20578;-65
2022/09/12 01:18:50;;;;;;;10.63;9.53;;;;;;;;;;5113022;28;20227;-65
2022/09/12 01:21:17;;;;;;;10.53;8.73;;;;;;;;;;5113100;28;20199;-64
2022/09/12 01:23:48;;;;;;;8.40;7.60;;;;;;;;;;5112688;28;20306;-65
2022/09/12 01:26:27;;;;;;;8.07;7.27;;;;;;;;;;5112831;28;20227;-65
2022/09/12 01:29:07;;;;;;;5.60;5.10;;;;;;;;;;5110946;28;20202;-65
2022/09/12 01:31:46;;;;;;;5.13;4.70;;;;;;;;;;5117949;27;20208;-65
2022/09/12 01:34:13;;;;;;;5.70;5.20;;;;;;;;;;5096515;28;20314;-65
2022/09/12 01:36:47;;;;;;;6.37;5.87;;;;;;;;;;5096235;28;20314;-65
2022/09/12 01:39:14;;;;;;;8.03;7.27;;;;;;;;;;5096074;28;20203;-64
2022/09/12 01:41:53;;;;;;;8.87;8.07;;;;;;;;;;5096600;28;20235;-65
2022/09/12 01:44:21;;;;;;;9.93;8.23;;;;;;;;;;5096490;28;20224;-64
2022/09/12 01:46:55;;;;;;;9.50;8.50;;;;;;;;;;5096072;28;20302;-64
2022/09/12 01:49:42;;;;;;;8.90;7.97;;;;;;;;;;5102455;27;20211;-65
2022/09/12 01:52:14;;;;;;;5.03;4.63;;;;;;;;;;5116317;27;20661;-65
2022/09/12 01:54:45;;;;;;;7.33;6.63;;;;;;;;;;5116317;27;20225;-65
2022/09/12 01:57:27;;;;;;;8.63;7.73;;;;;;;;;;5115964;27;20276;-64
2022/09/12 01:59:57;;;;;;;9.77;8.73;;;;;;;;;;5116190;27;20636;-64
2022/09/12 02:02:29;;;;;;;11.50;8.77;;;;;;;;;;5115579;27;20286;-66
2022/09/12 02:04:56;;;;;;;10.83;9.57;;;;;;;;;;5116468;27;20290;-65
2022/09/12 02:07:27;;;;;;;11.50;9.83;;;;;;;;;;5126427;27;20221;-65
2022/09/12 02:09:57;;;;;;;11.53;10.33;;;;;;;;;;5116608;27;20270;-65
2022/09/12 02:12:27;;;;;;;12.50;10.57;;;;;;;;;;5134407;27;20626;-65
2022/09/12 02:14:59;;;;;;;11.43;9.93;;;;;;;;;;5116259;27;20219;-65
2022/09/12 02:17:26;;;;;;;7.80;7.03;;;;;;;;;;5115987;27;20312;-65
2022/09/12 02:19:59;;;;;;;6.23;5.63;;;;;;;;;;5116439;27;20210;-65
2022/09/12 02:22:28;;;;;;;5.47;4.50;;;;;;;;;;5119910;27;20207;-65
2022/09/12 02:24:59;;;;;;;6.13;4.37;;;;;;;;;;5136868;27;20199;-65
2022/09/12 02:27:29;;;;;;;6.77;4.60;;;;;;;;;;5132373;27;20211;-66
2022/09/12 02:29:57;;;;;;;5.50;5.00;;;;;;;;;;5115595;27;20290;-65
2022/09/12 02:32:25;;;;;;;6.63;5.20;;;;;;;;;;5115935;27;20294;-65
2022/09/12 02:34:58;;;;;;;4.80;4.40;;;;;;;;;;5116470;27;20312;-64
2022/09/12 02:37:28;;;;;;;7.43;6.33;;;;;;;;;;5115681;27;20235;-65
2022/09/12 02:39:57;;;;;;;5.00;4.60;;;;;;;;;;5117011;27;20312;-65
2022/09/12 02:42:24;;;;;;;5.40;4.90;;;;;;;;;;5116222;27;20206;-65
2022/09/12 02:44:53;;;;;;;5.13;4.30;;;;;;;;;;5115997;27;20747;-65
2022/09/12 02:47:30;;;;;;;5.87;4.43;;;;;;;;;;5115647;27;20666;-64
2022/09/12 02:49:58;;;;;;;5.93;5.37;;;;;;;;;;5115725;27;20294;-64
2022/09/12 02:52:27;;;;;;;6.03;5.53;;;;;;;;;;5115732;27;20210;-65
2022/09/12 02:54:55;;;;;;;5.77;5.27;;;;;;;;;;5115301;27;20312;-65
2022/09/12 02:57:22;;;;;;;6.10;5.50;;;;;;;;;;5114299;27;20231;-65
2022/09/12 02:59:51;;;;;;;6.70;6.10;;;;;;;;;;5115005;27;20198;-65
2022/09/12 03:02:26;;;;;;;6.00;5.40;;;;;;;;;;5109440;27;20204;-64
2022/09/12 03:04:54;;;;;;;7.17;5.97;;;;;;;;;;5114287;27;20219;-65
2022/09/12 03:07:24;;;;;;;6.33;5.73;;;;;;;;;;5131702;27;20284;-65
2022/09/12 03:09:56;;;;;;;6.63;6.00;;;;;;;;;;5135978;27;20220;-65
2022/09/12 03:12:47;;;;;;;6.97;6.27;;;;;;;;;;5154038;27;20199;-65
2022/09/12 03:15:33;;;;;;;6.83;6.13;;;;;;;;;;5116485;27;20203;-65
2022/09/12 03:18:19;;;;;;;6.67;6.07;;;;;;;;;;5114946;27;20268;-64
2022/09/12 03:20:47;;;;;;;7.33;5.70;;;;;;;;;;5114824;27;20286;-64
2022/09/12 03:23:20;;;;;;;6.17;5.57;;;;;;;;;;5114534;27;20266;-65
2022/09/12 03:26:00;;;;;;;6.70;6.10;;;;;;;;;;5114787;27;20183;-64
2022/09/12 03:28:28;;;;;;;6.53;5.93;;;;;;;;;;5129343;27;20622;-65
2022/09/12 03:30:56;;;;;;;7.93;6.30;;;;;;;;;;5130012;27;20574;-65
2022/09/12 03:33:25;;;;;;;6.70;5.83;;;;;;;;;;5114736;27;20308;-64
2022/09/12 03:35:52;;;;;;;7.10;6.33;;;;;;;;;;5114822;27;20287;-64
2022/09/12 03:38:20;;;;;;;5.97;5.27;;;;;;;;;;5114898;27;20227;-64
2022/09/12 03:40:47;;;;;;;5.50;5.00;;;;;;;;;;5114583;27;20657;-65
2022/09/12 03:43:20;;;;;;;5.80;5.30;;;;;;;;;;5115261;27;20219;-64
2022/09/12 03:45:53;;;;;;;5.53;5.03;;;;;;;;;;5114055;27;20757;-64
2022/09/12 03:48:21;;;;;;;6.53;5.23;;;;;;;;;;5125674;27;20612;-65
2022/09/12 03:50:48;;;;;;;5.20;4.60;;;;;;;;;;5135032;27;20199;-65
2022/09/12 03:53:15;;;;;;;5.80;4.60;;;;;;;;;;5135176;27;20258;-64
2022/09/12 03:55:43;;;;;;;5.53;4.90;;;;;;;;;;5133768;27;20251;-65
2022/09/12 03:58:11;;;;;;;9.50;5.03;;;;;;;;;;5115962;27;20258;-66
2022/09/12 04:00:39;;;;;;;4.53;4.13;;;;;;;;;;5110707;27;20199;-64
2022/09/12 04:03:07;;;;;;;5.00;4.60;;;;;;;;;;5113461;27;20407;-65
2022/09/12 04:05:35;;;;;;;5.70;5.20;;;;;;;;;;5113189;27;20290;-65
2022/09/12 04:08:02;;;;;;;5.40;4.90;;;;;;;;;;5114080;27;20206;-64
2022/09/12 04:10:29;;;;;;;6.90;5.70;;;;;;;;;;5114221;27;20624;-65
2022/09/12 04:12:57;;;;;;;6.17;4.87;;;;;;;;;;5114077;27;20227;-65
2022/09/12 04:15:24;;;;;;;5.93;5.33;;;;;;;;;;5132420;27;20662;-64
2022/09/12 04:17:51;;;;;;;6.13;5.50;;;;;;;;;;5114043;27;20225;-65
2022/09/12 04:20:19;;;;;;;6.70;5.70;;;;;;;;;;5113749;27;20290;-65
2022/09/12 04:22:46;;;;;;;8.13;5.53;;;;;;;;;;5128595;27;20852;-65
2022/09/12 04:25:14;;;;;;;6.23;5.00;;;;;;;;;;5134527;27;20294;-65
2022/09/12 04:27:41;;;;;;;7.40;5.67;;;;;;;;;;5127597;27;20649;-65
2022/09/12 04:30:09;;;;;;;7.23;5.67;;;;;;;;;;5113370;27;20235;-65
2022/09/12 04:32:37;;;;;;;5.57;4.87;;;;;;;;;;5123617;27;20480;-65
2022/09/12 04:35:04;;;;;;;6.50;4.90;;;;;;;;;;5113670;27;20819;-65
2022/09/12 04:37:31;;;;;;;6.20;4.93;;;;;;;;;;5113026;27;20307;-65
2022/09/12 04:39:59;;;;;;;6.03;4.47;;;;;;;;;;5113841;27;20286;-65
2022/09/12 04:42:26;;;;;;;7.63;4.60;;;;;;;;;;5113608;27;20196;-64
2022/09/12 04:44:53;;;;;;;7.70;4.37;;;;;;;;;;5113193;27;20318;-64
2022/09/12 04:47:21;;;;;;;5.57;4.17;;;;;;;;;;5113069;27;20301;-65
2022/09/12 04:49:50;;;;;;;5.17;4.67;;;;;;;;;;5113196;27;20261;-66
2022/09/12 04:52:17;;;;;;;6.60;4.80;;;;;;;;;;5131511;27;20238;-65
2022/09/12 04:54:44;;;;;;;6.63;4.63;;;;;;;;;;5113395;27;20328;-65
2022/09/12 04:57:12;;;;;;;6.43;4.40;;;;;;;;;;5112703;27;20294;-65
2022/09/12 04:59:39;;;;;;;4.93;4.43;;;;;;;;;;5112875;27;20261;-65
2022/09/12 05:02:07;;;;;;;6.13;4.47;;;;;;;;;;5108348;28;20638;-64
2022/09/12 05:04:34;;;;;;;6.83;4.70;;;;;;;;;;5111268;27;20272;-65
2022/09/12 05:07:02;;;;;;;6.10;5.33;;;;;;;;;;5111956;28;20199;-65
2022/09/12 05:09:29;;;;;;;7.87;6.40;;;;;;;;;;5113121;27;20199;-65
2022/09/12 05:11:58;;;;;;;6.33;5.50;;;;;;;;;;5113200;27;20278;-65
2022/09/12 05:14:31;;;;;;;6.00;5.37;;;;;;;;;;5093679;28;20623;-65
2022/09/12 05:17:00;;;;;;;6.47;5.77;;;;;;;;;;5092976;28;20238;-65
2022/09/12 05:19:29;;;;;;;7.37;6.30;;;;;;;;;;5092923;28;20700;-65
2022/09/12 05:21:57;;;;;;;8.33;7.53;;;;;;;;;;5093110;28;20254;-65
2022/09/12 05:24:24;;;;;;;12.47;8.63;;;;;;;;;;5092751;28;20321;-65
2022/09/12 05:26:52;;;;;;;11.80;9.00;;;;;;;;;;5092172;28;20878;-65
2022/09/12 05:29:19;;;;;;;9.13;7.80;;;;;;;;;;5111429;28;20668;-65
2022/09/12 05:31:49;;;;;;;8.27;7.07;;;;;;;;;;5112049;28;20202;-65
2022/09/12 05:34:16;;;;;;;8.07;6.23;;;;;;;;;;5112756;28;20279;-65
2022/09/12 05:36:43;;;;;;;8.83;6.60;;;;;;;;;;5112592;28;20235;-65
2022/09/12 05:39:11;;;;;;;7.83;6.40;;;;;;;;;;5112870;28;20326;-65
2022/09/12 05:41:38;;;;;;;9.13;7.60;;;;;;;;;;5112104;28;20696;-65
2022/09/12 05:44:06;;;;;;;7.67;6.27;;;;;;;;;;5112069;28;20326;-65
2022/09/12 05:46:38;;;;;;;9.63;6.50;;;;;;;;;;5116514;27;20221;-65
2022/09/12 05:49:07;;;;;;;7.30;6.60;;;;;;;;;;5133397;27;20238;-66
2022/09/12 05:51:40;;;;;;;7.03;5.30;;;;;;;;;;5132830;27;20297;-64
2022/09/12 05:54:08;;;;;;;7.47;5.73;;;;;;;;;;5113973;28;20227;-65
2022/09/12 05:56:40;;;;;;;7.43;5.43;;;;;;;;;;5104098;28;20294;-64
2022/09/12 05:59:15;;;;;;;8.17;5.07;;;;;;;;;;5109970;28;20255;-65
2022/09/12 06:01:43;;;;;;;5.93;5.33;;;;;;;;;;5111306;28;20571;-65
2022/09/12 06:04:11;;;;;;;6.27;5.67;;;;;;;;;;5112726;28;20355;-65
2022/09/12 06:06:40;;;;;;;7.57;5.63;;;;;;;;;;5112406;28;20196;-64
2022/09/12 06:09:08;;;;;;;7.23;5.70;;;;;;;;;;5111674;28;20211;-65
2022/09/12 06:11:36;;;;;;;9.30;5.80;;;;;;;;;;5104196;28;20246;-65
2022/09/12 06:14:04;;;;;;;6.93;4.83;;;;;;;;;;5109005;28;20323;-65
2022/09/12 06:16:32;;;;;;;5.67;5.07;;;;;;;;;;5111510;28;20291;-65
2022/09/12 06:19:00;;;;;;;6.70;5.67;;;;;;;;;;5114225;27;20223;-64
2022/09/12 06:21:30;;;;;;;5.70;4.90;;;;;;;;;;5128320;27;20305;-64
2022/09/12 06:23:58;;;;;;;8.87;4.63;;;;;;;;;;5136594;27;20310;-65
2022/09/12 06:26:25;;;;;;;5.87;4.77;;;;;;;;;;5136212;27;20678;-65
2022/09/12 06:28:53;;;;;;;7.03;4.73;;;;;;;;;;5120323;27;20306;-64
2022/09/12 06:31:25;;;;;;;7.87;4.70;;;;;;;;;;5115338;27;20290;-64
2022/09/12 06:33:53;;;;;;;8.77;4.83;;;;;;;;;;5115789;27;20227;-65
2022/09/12 06:36:23;;;;;;;5.37;4.87;;;;;;;;;;5115500;27;20264;-65
2022/09/12 06:38:55;;;;;;;5.40;4.90;;;;;;;;;;5134637;27;20696;-65
2022/09/12 06:41:22;;;;;;;5.53;3.83;;;;;;;;;;5115759;27;20286;-65
2022/09/12 06:43:50;;;;;;;5.30;4.70;;;;;;;;;;5115478;27;20314;-64
2022/09/12 06:46:17;;;;;;;4.67;4.27;;;;;;;;;;5115270;27;20295;-64
2022/09/12 06:48:45;;;;;;;4.63;4.23;;;;;;;;;;5115707;27;20239;-65
2022/09/12 06:51:13;;;;;;;6.67;4.60;;;;;;;;;;5115586;27;20209;-66
2022/09/12 06:53:41;;;;;;;5.60;4.53;;;;;;;;;;5115469;27;20297;-65
2022/09/12 06:56:10;;;;;;;5.10;4.70;;;;;;;;;;5116054;27;20616;-65
2022/09/12 06:58:38;;;;;;;5.67;4.83;;;;;;;;;;5115045;27;20219;-65
2022/09/12 07:01:10;;;;;;;5.30;4.80;;;;;;;;;;5111027;27;20200;-63
2022/09/12 07:03:38;;;;;;;6.80;4.60;;;;;;;;;;5125974;27;20306;-64
2022/09/12 07:06:09;;;;;;;7.77;4.90;;;;;;;;;;5114834;27;20214;-65
2022/09/12 07:08:37;;;;;;;5.40;4.90;;;;;;;;;;5115767;27;20283;-65
2022/09/12 07:11:09;;;;;;;7.83;5.17;;;;;;;;;;5115546;27;20878;-65
2022/09/12 07:13:37;;;;;;;5.50;5.03;;;;;;;;;;5135934;27;20695;-65
2022/09/12 07:16:05;;;;;;;9.10;5.33;;;;;;;;;;5134821;27;20290;-65
2022/09/12 07:18:33;;;;;;;5.00;4.60;;;;;;;;;;5135805;27;20302;-65
2022/09/12 07:21:01;;;;;;;4.93;4.17;;;;;;;;;;5113144;27;20290;-65
2022/09/12 07:23:29;;;;;;;3.60;3.30;;;;;;;;;;5114714;27;20298;-65
2022/09/12 07:25:57;;;;;;;4.43;3.80;;;;;;;;;;5114622;27;20291;-65
2022/09/12 07:28:25;;;;;;;3.87;3.57;;;;;;;;;;5115700;27;20310;-65
2022/09/12 07:30:52;;;;;;;3.87;3.57;;;;;;;;;;5113934;27;20626;-65
2022/09/12 07:33:21;;;;;;;3.90;3.50;;;;;;;;;;5114973;27;20650;-65
2022/09/12 07:35:48;;;;;;;5.43;3.50;;;;;;;;;;5115018;27;20290;-65
2022/09/12 07:38:16;;;;;;;3.72;3.50;;;;;;;;;;5114610;27;20250;-64
2022/09/12 07:40:43;;;;;;;3.45;3.25;;;;;;;;;;5114975;27;20239;-65
2022/09/12 07:43:10;;;;;;;3.47;2.92;;;;;;;;;;5114869;27;20308;-65
2022/09/12 07:45:40;;;;;;;3.50;3.20;;;;;;;;;;5115317;27;20737;-65
2022/09/12 07:48:08;;;;;;;3.40;3.20;;;;;;;;;;5114964;27;20207;-66
2022/09/12 07:50:36;;;;;;;4.18;3.03;;;;;;;;;;5115247;27;20239;-66
2022/09/12 07:53:08;;;;;;;2.90;2.67;;;;;;;;;;5115106;27;20716;-65
2022/09/12 07:55:35;;;;;;;3.50;2.90;;;;;;;;;;5114295;27;20290;-65
2022/09/12 07:58:03;;;;;;;5.60;2.75;;;;;;;;;;5114174;27;20228;-66
2022/09/12 08:00:34;;;;;;;3.08;2.75;;;;;;;;;;5113875;27;20199;-65
2022/09/12 08:03:02;;;;;;;4.05;3.22;;;;;;;;;;5114354;27;20222;-65
2022/09/12 08:05:30;;;;;;;2.60;2.50;;;;;;;;;;5113354;27;20235;-66
2022/09/12 08:07:57;;;;;;;3.22;2.55;;;;;;;;;;5113857;27;20282;-65
2022/09/12 08:10:24;;;;;;;4.38;2.60;;;;;;;;;;5114034;27;20227;-65
2022/09/12 08:12:52;;;;;;;5.25;2.65;;;;;;;;;;5114145;27;20199;-64
2022/09/12 08:15:19;;;;;;;3.08;2.47;;;;;;;;;;5113731;27;20232;-65
2022/09/12 08:17:46;;;;;;;2.30;2.20;;;;;;;;;;5132117;27;20630;-65
2022/09/12 08:20:14;;;;;;;2.60;2.40;;;;;;;;;;5114084;27;20332;-65
2022/09/12 08:22:42;;;;;;;2.42;2.30;;;;;;;;;;5113560;27;20210;-65
2022/09/12 08:25:09;;;;;;;2.90;2.70;;;;;;;;;;5114118;27;20290;-64
2022/09/12 08:27:36;;;;;;;2.78;2.58;;;;;;;;;;5113467;27;20250;-65
2022/09/12 08:30:05;;;;;;;2.30;2.10;;;;;;;;;;5113560;27;20278;-65
2022/09/12 08:32:34;;;;;;;2.67;2.47;;;;;;;;;;5112883;27;20716;-65
2022/09/12 08:35:01;;;;;;;2.53;2.33;;;;;;;;;;5113633;27;20239;-65
2022/09/12 08:37:30;;;;;;;2.42;2.33;;;;;;;;;;5126004;27;20207;-65
2022/09/12 08:39:57;;;;;;;2.03;1.92;;;;;;;;;;5133903;27;20309;-64
2022/09/12 08:42:44;;;;;;;2.47;2.28;;;;;;;;;;5134005;27;20606;-65
2022/09/12 08:45:19;;;;;;;2.33;2.13;;;;;;;;;;5116992;27;20634;-65
2022/09/12 08:47:47;;;;;;;1.98;1.88;;;;;;;;;;5133508;27;20663;-65
2022/09/12 08:50:16;;;;;;;2.03;1.85;;;;;;;;;;5134130;27;20293;-65
2022/09/12 08:52:47;;;;;;;2.40;2.30;;;;;;;;;;5133639;27;20199;-65
2022/09/12 08:55:32;;;;;;;2.33;2.13;;;;;;;;;;5151251;27;20245;-65
2022/09/12 08:58:00;;;;;;;2.30;1.90;;;;;;;;;;5124899;27;20293;-65
2022/09/12 09:00:39;;;;;;;2.00;1.90;;;;;;;;;;5126845;27;20295;-65
2022/09/12 09:03:16;;;;;;;2.42;2.20;;;;;;;;;;5112901;27;20637;-66
2022/09/12 09:05:51;;;;;;;2.38;2.20;;;;;;;;;;5112434;27;20231;-65
2022/09/12 09:08:19;;;;;;;2.35;2.10;;;;;;;;;;5112916;27;20205;-65
2022/09/12 09:11:07;;;;;;;2.10;2.00;;;;;;;;;;5113859;27;20242;-65
2022/09/12 09:16:34;;;;;;;2.63;2.20;;;;;;;;;;5131119;27;20235;-65
2022/09/12 09:19:03;;;;;;;2.58;2.20;;;;;;;;;;5113007;27;20258;-65
2022/09/12 09:21:41;;;;;;;2.03;1.92;;;;;;;;;;5112653;28;20203;-65
2022/09/12 09:24:11;;;;;;;2.22;2.13;;;;;;;;;;5112497;28;20254;-65
2022/09/12 09:26:49;;;;;;;1.80;1.70;;;;;;;;;;5112404;28;20184;-65
2022/09/12 09:29:17;;;;;;;2.20;2.10;;;;;;;;;;5113336;28;20328;-65
2022/09/12 09:31:49;;;;;;;2.30;2.10;;;;;;;;;;5110730;28;20206;-65
2022/09/12 09:34:24;;;;;;;1.80;1.70;;;;;;;;;;5112244;28;20369;-65
2022/09/12 09:37:10;;;;;;;2.33;2.05;;;;;;;;;;5112470;28;20294;-65
2022/09/12 09:39:41;;;;;;;2.05;1.95;;;;;;;;;;5112610;28;20310;-65
2022/09/12 09:42:15;;;;;;;2.45;1.95;;;;;;;;;;5112575;28;20623;-65
2022/09/12 09:44:45;;;;;;;1.90;1.80;;;;;;;;;;5118167;27;20791;-65
2022/09/12 09:47:12;;;;;;;1.80;1.70;;;;;;;;;;5132728;27;20242;-66
2022/09/12 09:49:40;;;;;;;2.15;1.80;;;;;;;;;;5132629;27;20764;-65
2022/09/12 09:52:08;;;;;;;1.85;1.70;;;;;;;;;;5133234;27;20329;-66
2022/09/12 09:54:40;;;;;;;2.35;1.80;;;;;;;;;;5136696;27;20317;-64
2022/09/12 09:57:27;;;;;;;2.00;1.55;;;;;;;;;;5117733;27;20310;-64
2022/09/12 09:59:54;;;;;;;3.17;1.85;;;;;;;;;;5110790;27;20722;-66
2022/09/12 10:02:22;;;;;;;2.42;1.70;;;;;;;;;;5125231;27;20361;-65
2022/09/12 10:04:55;;;;;;;1.98;1.45;;;;;;;;;;5115714;27;20238;-65
2022/09/12 10:07:23;;;;;;;1.90;1.70;;;;;;;;;;5115954;27;20199;-65
2022/09/12 10:10:09;;;;;;;1.95;1.85;;;;;;;;;;5116217;27;20299;-65
2022/09/12 10:12:36;;;;;;;1.70;1.60;;;;;;;;;;5134036;27;20315;-65
2022/09/12 10:15:17;;;;;;;1.77;1.67;;;;;;;;;;5116133;27;20303;-65
2022/09/12 10:17:45;;;;;;;2.47;1.63;;;;;;;;;;5116350;27;20209;-65
2022/09/12 10:20:30;;;;;;;2.75;1.80;;;;;;;;;;5134752;27;20280;-64
2022/09/12 10:23:01;;;;;;;2.28;1.67;;;;;;;;;;5136474;27;20317;-65
2022/09/12 10:25:29;;;;;;;2.20;1.80;;;;;;;;;;5137365;27;20241;-65
2022/09/12 10:27:58;;;;;;;2.15;2.03;;;;;;;;;;5128905;27;20214;-65
2022/09/12 10:30:27;;;;;;;1.83;1.73;;;;;;;;;;5116129;27;20200;-65
2022/09/12 10:33:05;;;;;;;1.70;1.50;;;;;;;;;;5115756;27;20227;-65
2022/09/12 10:35:43;;;;;;;1.60;1.50;;;;;;;;;;5134905;27;20215;-65
2022/09/12 10:38:16;;;;;;;1.75;1.65;;;;;;;;;;5115838;27;20740;-65
2022/09/12 10:40:43;;;;;;;1.67;1.58;;;;;;;;;;5116074;27;20314;-65
2022/09/12 10:43:37;;;;;;;1.65;1.55;;;;;;;;;;5116170;27;20223;-65
2022/09/12 10:46:16;;;;;;;1.60;1.50;;;;;;;;;;5111475;27;20611;-65
2022/09/12 10:48:48;;;;;;;1.67;1.58;;;;;;;;;;5134037;27;20234;-65
2022/09/12 10:51:21;;;;;;;1.63;1.52;;;;;;;;;;5115648;27;20180;-66
2022/09/12 10:53:50;;;;;;;1.95;1.80;;;;;;;;;;5115950;27;20306;-65
2022/09/12 10:56:22;;;;;;;1.73;1.63;;;;;;;;;;5115215;27;20235;-65
2022/09/12 10:58:58;;;;;;;2.80;1.70;;;;;;;;;;5114935;27;20235;-65
2022/09/12 11:01:25;;;;;;;2.70;2.20;;;;;;;;;;5115251;27;20267;-65
2022/09/12 11:04:02;;;;;;;1.27;1.17;;;;;;;;;;5114528;27;20224;-65
2022/09/12 11:06:42;;;;;;;3.22;1.50;;;;;;;;;;5114599;27;20241;-65
2022/09/12 11:09:27;;;;;;;1.98;1.35;;;;;;;;;;5116466;27;20522;-66
2022/09/12 11:12:13;;;;;;;1.50;1.40;;;;;;;;;;5136158;27;20306;-65
2022/09/12 11:14:46;;;;;;;1.30;1.30;;;;;;;;;;5135823;27;20250;-65
2022/09/12 11:17:29;;;;;;;1.33;1.30;;;;;;;;;;5135510;27;20736;-66
2022/09/12 11:19:59;;;;;;;1.05;1.05;;;;;;;;;;5154198;27;20273;-64
2022/09/12 11:22:35;;;;;;;1.40;1.30;;;;;;;;;;5135911;27;20294;-65
2022/09/12 11:25:03;;;;;;;1.45;1.20;;;;;;;;;;5135892;27;20209;-66
2022/09/12 11:27:49;;;;;;;1.88;1.30;;;;;;;;;;5122160;27;20283;-65
2022/09/12 11:30:17;;;;;;;1.15;1.13;;;;;;;;;;5114692;27;20208;-66
2022/09/12 11:32:58;;;;;;;1.02;1.02;;;;;;;;;;5114645;27;20234;-65
2022/09/12 11:35:30;;;;;;;0.80;0.80;;;;;;;;;;5114828;27;20564;-65
2022/09/12 11:38:16;;;;;;;0.82;0.80;;;;;;;;;;5114405;27;20234;-65
2022/09/12 11:40:54;;;;;;;1.10;1.00;;;;;;;;;;5120936;27;20223;-65
2022/09/12 11:43:25;;;;;;;2.55;1.10;;;;;;;;;;5115065;27;20245;-65
2022/09/12 11:45:52;;;;;;;1.52;1.08;;;;;;;;;;5114277;27;20195;-65
2022/09/12 11:48:43;;;;;;;1.00;1.00;;;;;;;;;;5116540;27;20631;-66
2022/09/12 11:51:24;;;;;;;0.95;0.90;;;;;;;;;;5105187;27;20211;-65
2022/09/12 11:54:09;;;;;;;0.95;0.90;;;;;;;;;;5115714;27;20243;-65
2022/09/12 11:56:41;;;;;;;1.15;1.15;;;;;;;;;;5113908;27;20278;-66
2022/09/12 11:59:15;;;;;;;1.63;1.10;;;;;;;;;;5114190;27;20329;-66
2022/09/12 12:01:47;;;;;;;1.10;1.10;;;;;;;;;;5111364;27;20286;-65
2022/09/12 12:04:17;;;;;;;2.08;1.30;;;;;;;;;;5105391;27;20680;-65
2022/09/12 12:06:57;;;;;;;1.17;1.08;;;;;;;;;;5113584;27;20199;-65
2022/09/12 12:09:25;;;;;;;1.10;1.10;;;;;;;;;;5132170;27;20234;-65
2022/09/12 12:11:56;;;;;;;1.00;1.00;;;;;;;;;;5113440;27;20299;-64
2022/09/12 12:14:26;;;;;;;1.00;1.00;;;;;;;;;;5113888;27;20310;-65
2022/09/12 12:16:53;;;;;;;1.00;0.95;;;;;;;;;;5112983;27;20298;-64
2022/09/12 12:19:24;;;;;;;0.80;0.80;;;;;;;;;;5113815;27;20636;-65
2022/09/12 12:21:51;;;;;;;1.10;1.02;;;;;;;;;;5113919;27;20235;-66
2022/09/12 12:24:19;;;;;;;1.08;1.00;;;;;;;;;;5113931;27;20367;-65
2022/09/12 12:26:53;;;;;;;0.90;0.90;;;;;;;;;;5114039;27;20243;-64
2022/09/12 12:29:20;;;;;;;0.63;0.63;;;;;;;;;;5113661;27;20203;-65
2022/09/12 12:32:00;;;;;;;1.10;1.00;;;;;;;;;;5113977;27;20250;-64
2022/09/12 12:34:42;;;;;;;1.10;0.90;;;;;;;;;;5114198;27;20337;-64
2022/09/12 12:37:18;;;;;;;1.00;1.00;;;;;;;;;;5113420;27;20282;-65
2022/09/12 12:39:49;;;;;;;1.15;1.10;;;;;;;;;;5113481;27;20265;-65
2022/09/12 12:42:33;;;;;;;0.82;0.82;;;;;;;;;;5113777;27;20203;-65
2022/09/12 12:45:06;;;;;;;0.95;0.93;;;;;;;;;;5113608;27;20219;-65
2022/09/12 12:47:39;;;;;;;1.77;0.93;;;;;;;;;;5113099;27;20433;-65
2022/09/12 12:50:06;;;;;;;1.60;0.90;;;;;;;;;;5113500;27;20270;-66
2022/09/12 12:52:46;;;;;;;0.88;0.88;;;;;;;;;;5131148;27;20657;-64
2022/09/12 12:55:15;;;;;;;0.80;0.80;;;;;;;;;;5113454;27;20639;-66
2022/09/12 12:57:49;;;;;;;0.90;0.90;;;;;;;;;;5113700;27;20222;-65
2022/09/12 13:00:20;;;;;;;0.90;0.90;;;;;;;;;;5113545;27;20656;-64
2022/09/12 13:02:56;;;;;;;0.70;0.70;;;;;;;;;;5113219;27;20242;-65
2022/09/12 13:05:25;;;;;;;1.40;0.85;;;;;;;;;;5111079;27;20289;-65
2022/09/12 13:08:03;;;;;;;1.45;0.80;;;;;;;;;;5112363;27;20745;-64
2022/09/12 13:10:30;;;;;;;1.45;0.93;;;;;;;;;;5129539;27;20294;-65
2022/09/12 13:13:00;;;;;;;1.02;0.80;;;;;;;;;;5130915;27;20311;-64
2022/09/12 13:15:36;;;;;;;1.10;1.10;;;;;;;;;;5112890;28;20559;-64
2022/09/12 13:18:11;;;;;;;1.27;1.10;;;;;;;;;;5131113;27;20287;-65
2022/09/12 13:20:49;;;;;;;1.13;1.08;;;;;;;;;;5113003;27;20290;-65
2022/09/12 13:23:24;;;;;;;0.70;0.70;;;;;;;;;;5131096;27;20229;-64
2022/09/12 13:25:52;;;;;;;0.95;0.95;;;;;;;;;;5112880;28;20203;-65
2022/09/12 13:28:19;;;;;;;1.38;1.00;;;;;;;;;;5111755;28;20400;-64
2022/09/12 13:30:59;;;;;;;1.48;0.80;;;;;;;;;;5112816;28;20238;-64
2022/09/12 13:33:31;;;;;;;1.52;0.85;;;;;;;;;;5112403;28;20253;-65
2022/09/12 13:35:58;;;;;;;0.98;0.98;;;;;;;;;;5112201;28;20203;-65
2022/09/12 13:38:33;;;;;;;1.52;0.90;;;;;;;;;;5112749;28;20213;-64
2022/09/12 13:41:21;;;;;;;0.90;0.90;;;;;;;;;;5131180;28;20327;-65
2022/09/12 13:43:49;;;;;;;1.25;0.90;;;;;;;;;;5077411;27;20257;-65
2022/09/12 13:46:36;;;;;;;0.95;0.90;;;;;;;;;;5132567;27;20217;-66
2022/09/12 13:49:16;;;;;;;0.70;0.70;;;;;;;;;;5151692;27;20532;-65
2022/09/12 13:51:43;;;;;;;0.80;0.80;;;;;;;;;;5115113;28;20225;-66
2022/09/12 13:54:16;;;;;;;1.40;0.70;;;;;;;;;;5112265;28;20306;-66
2022/09/12 13:56:49;;;;;;;1.45;1.00;;;;;;;;;;5113029;28;20590;-65
2022/09/12 13:59:16;;;;;;;1.15;0.70;;;;;;;;;;5112609;27;20211;-66
2022/09/12 14:01:45;;;;;;;0.95;0.90;;;;;;;;;;5130944;28;20389;-65
2022/09/12 14:07:25;;;;;;;1.23;0.70;;;;;;;;;;5126106;28;20217;-65
2022/09/12 14:09:53;;;;;;;0.70;0.70;;;;;;;;;;5110490;28;20287;-65
2022/09/12 14:12:36;;;;;;;0.80;0.80;;;;;;;;;;5092185;28;20291;-65
2022/09/12 14:15:03;;;;;;;1.45;0.80;;;;;;;;;;5092047;28;20287;-65
2022/09/12 14:17:35;;;;;;;0.55;0.55;;;;;;;;;;5117550;27;20242;-66
2022/09/12 14:20:07;;;;;;;0.80;0.70;;;;;;;;;;5132643;27;20245;-66
2022/09/12 14:22:37;;;;;;;0.40;0.40;;;;;;;;;;5132638;27;20368;-66
2022/09/12 14:25:09;;;;;;;2.33;0.90;;;;;;;;;;5133019;27;20236;-65
2022/09/12 14:27:45;;;;;;;1.65;0.85;;;;;;;;;;5127113;28;20207;-64
2022/09/12 14:30:18;;;;;;;0.50;0.50;;;;;;;;;;5112058;28;20695;-64
2022/09/12 14:33:15;;;;;;;0.60;0.60;;;;;;;;;;5111918;28;20290;-65
2022/09/12 14:35:51;;;;;;;0.65;0.60;;;;;;;;;;5073484;28;20237;-64
2022/09/12 14:38:24;;;;;;;2.80;0.82;;;;;;;;;;5091641;28;20233;-66
2022/09/12 14:41:02;;;;;;;1.00;1.00;;;;;;;;;;5095568;28;20251;-67
2022/09/12 14:43:31;;;;;;;0.82;0.65;;;;;;;;;;5094966;28;20780;-64
2022/09/12 14:46:02;;;;;;;0.57;0.57;;;;;;;;;;5095163;28;20290;-66
2022/09/12 14:48:31;;;;;;;0.70;0.68;;;;;;;;;;5096092;27;20733;-64
2022/09/12 14:51:00;;;;;;;1.45;0.70;;;;;;;;;;5116072;27;20291;-65
2022/09/12 14:53:34;;;;;;;0.98;0.70;;;;;;;;;;5114673;27;20929;-64
2022/09/12 14:56:12;;;;;;;1.08;0.70;;;;;;;;;;5115292;27;20306;-65
2022/09/12 14:58:40;;;;;;;0.70;0.70;;;;;;;;;;5115053;27;20294;-66
2022/09/12 15:01:08;;;;;;;1.15;0.82;;;;;;;;;;5115169;27;20223;-66
2022/09/12 15:03:36;;;;;;;1.15;0.70;;;;;;;;;;5115208;27;20702;-66
2022/09/12 15:06:06;;;;;;;1.23;0.75;;;;;;;;;;5114748;27;20295;-66
2022/09/12 15:08:34;;;;;;;0.60;0.60;;;;;;;;;;5128368;27;20673;-65
2022/09/12 15:11:01;;;;;;;3.47;0.70;;;;;;;;;;5135882;27;20301;-65
2022/09/12 15:13:30;;;;;;;1.77;0.60;;;;;;;;;;5135503;27;20795;-66